Time;durP1;ratioP1;P1;durP2;ratioP2;P2;SDS_P1;SDS_P2;PMS_P1;PMS_P2;Temp;Humidity;BMP_temperature;BMP_pressure;BME280_temperature;BME280_humidity;BME280_pressure;Samples;Min_cycle;Max_cycle;Signal;HPM_P1;HPM_P2
2024/02/25 00:00:52;;;;;;;2.35;1.80;;;;;;;;;;5069379;28;20049;-62
2024/02/25 00:03:18;;;;;;;2.35;1.73;;;;;;;;;;5072270;28;20432;-64
2024/02/25 00:05:44;;;;;;;5.40;2.00;;;;;;;;;;5070755;28;20041;-63
2024/02/25 00:08:10;;;;;;;1.85;1.40;;;;;;;;;;5068643;28;20088;-63
2024/02/25 00:10:36;;;;;;;1.88;1.58;;;;;;;;;;5067129;28;20052;-62
2024/02/25 00:13:03;;;;;;;2.67;1.52;;;;;;;;;;5068539;28;20053;-62
2024/02/25 00:15:29;;;;;;;2.13;1.60;;;;;;;;;;5066582;28;20049;-62
2024/02/25 00:17:55;;;;;;;3.15;1.75;;;;;;;;;;5084685;28;20037;-62
2024/02/25 00:20:21;;;;;;;3.13;2.03;;;;;;;;;;5073507;28;20056;-62
2024/02/25 00:22:47;;;;;;;2.40;1.80;;;;;;;;;;5071532;28;20028;-63
2024/02/25 00:25:13;;;;;;;2.13;1.50;;;;;;;;;;5071475;28;20531;-62
2024/02/25 00:27:39;;;;;;;2.45;1.50;;;;;;;;;;5066897;28;20036;-63
2024/02/25 00:30:07;;;;;;;4.75;2.28;;;;;;;;;;5072716;28;20028;-62
2024/02/25 00:32:33;;;;;;;4.32;2.25;;;;;;;;;;5072920;28;20048;-62
2024/02/25 00:35:00;;;;;;;4.55;1.90;;;;;;;;;;5072146;28;20420;-62
2024/02/25 00:37:26;;;;;;;2.50;1.73;;;;;;;;;;5079536;28;20039;-62
2024/02/25 00:39:52;;;;;;;2.60;1.63;;;;;;;;;;5075990;28;20056;-62
2024/02/25 00:42:18;;;;;;;2.97;1.70;;;;;;;;;;5056547;28;20036;-63
2024/02/25 00:44:48;;;;;;;3.03;1.63;;;;;;;;;;5073531;28;20040;-62
2024/02/25 00:47:15;;;;;;;1.95;1.50;;;;;;;;;;5074211;28;20519;-62
2024/02/25 00:49:42;;;;;;;4.82;1.83;;;;;;;;;;5076017;28;20431;-61
2024/02/25 00:52:08;;;;;;;3.03;1.45;;;;;;;;;;5071524;28;20036;-62
2024/02/25 00:54:35;;;;;;;2.42;1.65;;;;;;;;;;5074857;28;20508;-62
2024/02/25 00:57:01;;;;;;;3.28;1.80;;;;;;;;;;5072617;28;20505;-62
2024/02/25 00:59:27;;;;;;;1.85;1.70;;;;;;;;;;5078613;28;20497;-62
2024/02/25 01:01:53;;;;;;;3.45;1.80;;;;;;;;;;5074825;28;20063;-62
2024/02/25 01:04:20;;;;;;;2.30;1.90;;;;;;;;;;5076009;28;20125;-62
2024/02/25 01:06:48;;;;;;;2.92;2.33;;;;;;;;;;5072111;28;20067;-62
2024/02/25 01:09:14;;;;;;;3.80;2.20;;;;;;;;;;5072519;28;20045;-62
2024/02/25 01:11:40;;;;;;;2.53;2.08;;;;;;;;;;5072930;28;20412;-62
2024/02/25 01:14:06;;;;;;;2.85;1.92;;;;;;;;;;5075458;28;20056;-62
2024/02/25 01:16:32;;;;;;;2.55;2.05;;;;;;;;;;5075529;28;20060;-61
2024/02/25 01:18:59;;;;;;;2.15;1.70;;;;;;;;;;5072134;28;20047;-62
2024/02/25 01:21:25;;;;;;;2.95;2.08;;;;;;;;;;5080849;28;20039;-62
2024/02/25 01:23:51;;;;;;;3.70;2.20;;;;;;;;;;5072471;28;20053;-61
2024/02/25 01:26:17;;;;;;;4.47;2.22;;;;;;;;;;5075432;28;20499;-62
2024/02/25 01:28:43;;;;;;;4.82;2.30;;;;;;;;;;5067760;28;20413;-62
2024/02/25 01:31:09;;;;;;;6.72;3.20;;;;;;;;;;5072547;28;20045;-61
2024/02/25 01:33:35;;;;;;;6.90;2.40;;;;;;;;;;5072068;28;20040;-62
2024/02/25 01:36:01;;;;;;;3.42;2.10;;;;;;;;;;5079433;28;20048;-61
2024/02/25 01:38:27;;;;;;;4.07;1.85;;;;;;;;;;5076354;28;20050;-62
2024/02/25 01:40:53;;;;;;;2.05;1.85;;;;;;;;;;5071529;28;20365;-62
2024/02/25 01:43:20;;;;;;;2.40;1.65;;;;;;;;;;5075479;28;20039;-62
2024/02/25 01:45:46;;;;;;;2.70;1.80;;;;;;;;;;5056040;28;20067;-62
2024/02/25 01:48:15;;;;;;;6.28;2.35;;;;;;;;;;5071825;28;20146;-61
2024/02/25 01:50:41;;;;;;;2.45;1.90;;;;;;;;;;5073666;28;20025;-61
2024/02/25 01:53:08;;;;;;;2.50;1.83;;;;;;;;;;5071988;28;20044;-61
2024/02/25 01:55:35;;;;;;;4.05;2.25;;;;;;;;;;5081101;28;20048;-61
2024/02/25 01:58:02;;;;;;;2.63;2.10;;;;;;;;;;5058314;28;20059;-61
2024/02/25 02:00:29;;;;;;;3.50;2.30;;;;;;;;;;5078376;28;20044;-60
2024/02/25 02:02:58;;;;;;;4.95;2.08;;;;;;;;;;5077103;28;20036;-61
2024/02/25 02:05:25;;;;;;;3.15;2.00;;;;;;;;;;5086138;28;20051;-63
2024/02/25 02:07:53;;;;;;;3.47;2.00;;;;;;;;;;5073063;28;20032;-64
2024/02/25 02:10:19;;;;;;;3.75;2.40;;;;;;;;;;5074075;28;20024;-63
2024/02/25 02:12:47;;;;;;;3.80;2.25;;;;;;;;;;5075112;28;20368;-63
2024/02/25 02:15:15;;;;;;;4.43;2.55;;;;;;;;;;5077481;28;20051;-61
2024/02/25 02:17:43;;;;;;;3.72;2.55;;;;;;;;;;5077124;28;20044;-63
2024/02/25 02:20:20;;;;;;;4.07;2.20;;;;;;;;;;5078468;28;20467;-61
2024/02/25 02:22:47;;;;;;;5.20;2.40;;;;;;;;;;5071549;28;20039;-61
2024/02/25 02:25:16;;;;;;;3.15;2.28;;;;;;;;;;5073375;28;20044;-61
2024/02/25 02:27:43;;;;;;;3.50;2.70;;;;;;;;;;5073797;28;20036;-61
2024/02/25 02:30:10;;;;;;;2.83;2.28;;;;;;;;;;5068970;28;20492;-61
2024/02/25 02:32:37;;;;;;;4.43;2.42;;;;;;;;;;5070191;28;20047;-63
2024/02/25 02:35:04;;;;;;;5.47;2.33;;;;;;;;;;5069923;28;20534;-60
2024/02/25 02:37:30;;;;;;;3.28;2.15;;;;;;;;;;5070429;28;20044;-61
2024/02/25 02:39:56;;;;;;;2.70;2.30;;;;;;;;;;5069719;28;20036;-61
2024/02/25 02:42:23;;;;;;;3.22;2.30;;;;;;;;;;5070569;28;20036;-61
2024/02/25 02:44:50;;;;;;;3.65;2.22;;;;;;;;;;5069154;28;20297;-61
2024/02/25 02:47:19;;;;;;;3.20;2.20;;;;;;;;;;5071960;28;20040;-61
2024/02/25 02:49:45;;;;;;;3.60;2.07;;;;;;;;;;5068704;28;20032;-61
2024/02/25 02:52:11;;;;;;;3.60;2.45;;;;;;;;;;5071049;28;20032;-61
2024/02/25 02:54:37;;;;;;;4.40;2.30;;;;;;;;;;5070659;28;20032;-61
2024/02/25 02:57:03;;;;;;;4.60;2.45;;;;;;;;;;5075787;28;20087;-60
2024/02/25 02:59:29;;;;;;;5.18;2.78;;;;;;;;;;5070937;28;20898;-61
2024/02/25 03:01:56;;;;;;;3.58;2.45;;;;;;;;;;5072004;28;20048;-62
2024/02/25 03:04:22;;;;;;;5.50;2.50;;;;;;;;;;5070632;28;20040;-60
2024/02/25 03:06:49;;;;;;;4.07;1.98;;;;;;;;;;5069899;28;20040;-61
2024/02/25 03:09:15;;;;;;;2.80;2.30;;;;;;;;;;5070451;28;20036;-60
2024/02/25 03:11:41;;;;;;;3.38;2.08;;;;;;;;;;5068696;28;20381;-60
2024/02/25 03:14:07;;;;;;;3.55;2.03;;;;;;;;;;5075133;28;20061;-62
2024/02/25 03:16:33;;;;;;;2.72;2.38;;;;;;;;;;5072900;28;20040;-61
2024/02/25 03:19:00;;;;;;;3.15;2.30;;;;;;;;;;5067888;28;20651;-61
2024/02/25 03:21:26;;;;;;;2.92;2.28;;;;;;;;;;5068285;28;20139;-61
2024/02/25 03:23:52;;;;;;;2.92;2.60;;;;;;;;;;5069547;28;20055;-61
2024/02/25 03:26:19;;;;;;;4.32;2.47;;;;;;;;;;5068937;28;20043;-60
2024/02/25 03:28:46;;;;;;;2.75;2.25;;;;;;;;;;5066683;28;20095;-61
2024/02/25 03:31:12;;;;;;;3.92;2.50;;;;;;;;;;5074336;28;20059;-60
2024/02/25 03:33:39;;;;;;;4.13;2.53;;;;;;;;;;5073374;28;20488;-61
2024/02/25 03:36:06;;;;;;;4.00;2.72;;;;;;;;;;5069040;28;20032;-61
2024/02/25 03:38:32;;;;;;;4.47;2.63;;;;;;;;;;5068135;28;20055;-61
2024/02/25 03:40:59;;;;;;;3.58;2.13;;;;;;;;;;5068369;28;20417;-61
2024/02/25 03:43:25;;;;;;;3.97;2.85;;;;;;;;;;5069773;28;20044;-61
2024/02/25 03:45:51;;;;;;;7.57;2.85;;;;;;;;;;5069010;28;20545;-62
2024/02/25 03:48:17;;;;;;;3.42;2.63;;;;;;;;;;5072472;28;20048;-61
2024/02/25 03:50:43;;;;;;;3.30;2.20;;;;;;;;;;5066728;28;20033;-61
2024/02/25 03:53:09;;;;;;;2.92;2.30;;;;;;;;;;5072532;28;20083;-61
2024/02/25 03:55:35;;;;;;;3.33;2.30;;;;;;;;;;5069861;28;20036;-61
2024/02/25 03:58:01;;;;;;;4.50;2.40;;;;;;;;;;5071684;28;20047;-61
2024/02/25 04:00:27;;;;;;;3.45;2.10;;;;;;;;;;5066551;28;20040;-63
2024/02/25 04:02:53;;;;;;;4.15;2.38;;;;;;;;;;5080610;28;20028;-61
2024/02/25 04:05:19;;;;;;;3.75;2.45;;;;;;;;;;5072342;28;20040;-62
2024/02/25 04:07:45;;;;;;;4.10;2.58;;;;;;;;;;5068982;28;20039;-60
2024/02/25 04:10:13;;;;;;;5.15;2.50;;;;;;;;;;5068384;28;20041;-60
2024/02/25 04:12:39;;;;;;;3.53;2.35;;;;;;;;;;5074826;28;20051;-61
2024/02/25 04:15:07;;;;;;;3.78;2.50;;;;;;;;;;5069192;28;20040;-61
2024/02/25 04:17:33;;;;;;;4.85;2.60;;;;;;;;;;5066646;28;20037;-60
2024/02/25 04:20:01;;;;;;;2.75;2.13;;;;;;;;;;5067214;28;20385;-61
2024/02/25 04:22:28;;;;;;;2.92;2.17;;;;;;;;;;5068057;28;20048;-61
2024/02/25 04:24:54;;;;;;;2.88;2.00;;;;;;;;;;5070716;28;20045;-62
2024/02/25 04:27:20;;;;;;;3.45;2.15;;;;;;;;;;5064407;28;20044;-61
2024/02/25 04:29:47;;;;;;;4.65;2.10;;;;;;;;;;5065928;28;20412;-60
2024/02/25 04:32:13;;;;;;;3.40;2.08;;;;;;;;;;5068391;28;20509;-61
2024/02/25 04:34:41;;;;;;;4.15;2.40;;;;;;;;;;5068807;28;20029;-61
2024/02/25 04:37:07;;;;;;;3.53;2.42;;;;;;;;;;5066596;28;20052;-61
2024/02/25 04:39:38;;;;;;;2.92;2.03;;;;;;;;;;5068702;28;20048;-62
2024/02/25 04:42:05;;;;;;;3.33;2.10;;;;;;;;;;5067923;28;20036;-64
2024/02/25 04:44:31;;;;;;;3.40;2.38;;;;;;;;;;5067390;28;20041;-60
2024/02/25 04:46:57;;;;;;;2.05;1.85;;;;;;;;;;5057698;28;20523;-62
2024/02/25 04:49:24;;;;;;;2.42;1.90;;;;;;;;;;5070743;28;20043;-62
2024/02/25 04:51:50;;;;;;;2.88;1.80;;;;;;;;;;5076208;28;20041;-61
2024/02/25 04:54:16;;;;;;;3.30;1.70;;;;;;;;;;5071104;28;20029;-61
2024/02/25 04:56:43;;;;;;;1.60;1.50;;;;;;;;;;5070862;28;20504;-61
2024/02/25 04:59:09;;;;;;;1.88;1.60;;;;;;;;;;5072803;28;20040;-61
2024/02/25 05:01:42;;;;;;;2.20;1.40;;;;;;;;;;5074316;28;20055;-62
2024/02/25 05:04:08;;;;;;;2.55;1.83;;;;;;;;;;5065836;28;20404;-62
2024/02/25 05:06:35;;;;;;;2.88;1.90;;;;;;;;;;5067378;28;20063;-62
2024/02/25 05:09:03;;;;;;;2.38;1.50;;;;;;;;;;5068514;28;20059;-61
2024/02/25 05:11:30;;;;;;;1.95;1.58;;;;;;;;;;5069153;28;20059;-61
2024/02/25 05:13:57;;;;;;;4.50;1.52;;;;;;;;;;5066765;28;20051;-62
2024/02/25 05:16:23;;;;;;;3.15;1.58;;;;;;;;;;5074873;28;20047;-61
2024/02/25 05:18:49;;;;;;;2.55;1.60;;;;;;;;;;5070620;28;20047;-62
2024/02/25 05:21:15;;;;;;;2.40;1.70;;;;;;;;;;5054699;28;20524;-62
2024/02/25 05:23:41;;;;;;;1.77;1.60;;;;;;;;;;5074852;28;20040;-61
2024/02/25 05:26:07;;;;;;;2.85;1.60;;;;;;;;;;5069212;28;20032;-60
2024/02/25 05:28:34;;;;;;;2.00;1.48;;;;;;;;;;5069798;28;20664;-61
2024/02/25 05:31:00;;;;;;;2.83;1.50;;;;;;;;;;5069884;28;20051;-62
2024/02/25 05:33:26;;;;;;;2.40;1.85;;;;;;;;;;5069964;28;20048;-62
2024/02/25 05:35:53;;;;;;;2.08;1.58;;;;;;;;;;5071339;28;20052;-62
2024/02/25 05:38:19;;;;;;;2.13;1.65;;;;;;;;;;5068282;28;20055;-61
2024/02/25 05:40:45;;;;;;;2.45;1.75;;;;;;;;;;5071010;28;20041;-61
2024/02/25 05:43:11;;;;;;;2.40;1.42;;;;;;;;;;5069373;28;20493;-62
2024/02/25 05:45:39;;;;;;;2.15;1.80;;;;;;;;;;5074451;28;20688;-61
2024/02/25 05:48:06;;;;;;;3.13;1.70;;;;;;;;;;5070207;28;20056;-61
2024/02/25 05:50:32;;;;;;;2.47;1.88;;;;;;;;;;5071003;28;20040;-61
2024/02/25 05:52:58;;;;;;;2.40;1.67;;;;;;;;;;5071769;28;20037;-61
2024/02/25 05:55:24;;;;;;;2.22;1.50;;;;;;;;;;5076395;28;20044;-61
2024/02/25 05:57:51;;;;;;;5.28;1.85;;;;;;;;;;5078901;28;20365;-61
2024/02/25 06:00:17;;;;;;;3.03;2.05;;;;;;;;;;5057144;28;20508;-61
2024/02/25 06:02:46;;;;;;;4.00;2.00;;;;;;;;;;5071092;28;20051;-62
2024/02/25 06:05:15;;;;;;;1.97;1.63;;;;;;;;;;5074543;28;20048;-61
2024/02/25 06:07:43;;;;;;;3.88;1.67;;;;;;;;;;5068275;28;20040;-57
2024/02/25 06:10:09;;;;;;;1.98;1.77;;;;;;;;;;5072036;28;20044;-60
2024/02/25 06:12:37;;;;;;;4.93;1.85;;;;;;;;;;5069031;28;20025;-59
2024/02/25 06:15:11;;;;;;;2.55;1.85;;;;;;;;;;5069521;28;20051;-59
2024/02/25 06:17:38;;;;;;;3.08;1.90;;;;;;;;;;5072365;28;20036;-59
2024/02/25 06:20:09;;;;;;;2.00;1.60;;;;;;;;;;5070510;28;20051;-59
2024/02/25 06:22:37;;;;;;;2.00;1.65;;;;;;;;;;5070417;28;20346;-57
2024/02/25 06:25:04;;;;;;;4.47;1.92;;;;;;;;;;5069782;28;20102;-57
2024/02/25 06:27:37;;;;;;;3.20;1.75;;;;;;;;;;5073423;28;20044;-57
2024/02/25 06:30:07;;;;;;;1.77;1.50;;;;;;;;;;5069216;28;20461;-58
2024/02/25 06:32:34;;;;;;;3.75;1.80;;;;;;;;;;5071618;28;20047;-58
2024/02/25 06:35:01;;;;;;;1.52;1.38;;;;;;;;;;5076259;28;20055;-57
2024/02/25 06:37:28;;;;;;;2.55;1.83;;;;;;;;;;5070885;28;20039;-57
2024/02/25 06:39:54;;;;;;;2.25;1.83;;;;;;;;;;5073661;28;20036;-58
2024/02/25 06:42:21;;;;;;;3.35;1.80;;;;;;;;;;5073294;28;20044;-58
2024/02/25 06:44:47;;;;;;;4.43;1.45;;;;;;;;;;5075642;28;20405;-58
2024/02/25 06:47:13;;;;;;;2.95;1.40;;;;;;;;;;5075286;28;20055;-57
2024/02/25 06:49:40;;;;;;;3.28;1.65;;;;;;;;;;5075705;28;20046;-58
2024/02/25 06:52:07;;;;;;;2.53;1.52;;;;;;;;;;5069186;28;20028;-59
2024/02/25 06:54:33;;;;;;;2.55;1.80;;;;;;;;;;5069817;28;20396;-58
2024/02/25 06:57:00;;;;;;;1.83;1.00;;;;;;;;;;5071707;28;20047;-57
2024/02/25 06:59:26;;;;;;;2.30;1.30;;;;;;;;;;5074362;28;20050;-57
2024/02/25 07:01:52;;;;;;;2.58;1.27;;;;;;;;;;5073006;28;20142;-57
2024/02/25 07:04:19;;;;;;;2.60;1.70;;;;;;;;;;5072170;28;20063;-57
2024/02/25 07:06:45;;;;;;;2.08;1.30;;;;;;;;;;5068434;28;20496;-58
2024/02/25 07:09:13;;;;;;;2.75;1.83;;;;;;;;;;5071476;28;20036;-57
2024/02/25 07:11:40;;;;;;;1.52;1.30;;;;;;;;;;5070953;28;20028;-58
2024/02/25 07:14:06;;;;;;;2.15;1.05;;;;;;;;;;5070197;28;20074;-58
2024/02/25 07:16:32;;;;;;;3.42;1.23;;;;;;;;;;5070255;28;20040;-59
2024/02/25 07:18:58;;;;;;;2.15;1.20;;;;;;;;;;5074970;28;20041;-58
2024/02/25 07:21:26;;;;;;;1.42;1.20;;;;;;;;;;5069986;28;20044;-58
2024/02/25 07:23:52;;;;;;;1.35;1.10;;;;;;;;;;5071066;28;20059;-58
2024/02/25 07:26:18;;;;;;;1.88;1.20;;;;;;;;;;5070380;28;20396;-58
2024/02/25 07:28:44;;;;;;;2.33;1.10;;;;;;;;;;5067252;28;20393;-60
2024/02/25 07:31:17;;;;;;;1.65;1.10;;;;;;;;;;5069012;28;20055;-58
2024/02/25 07:33:44;;;;;;;3.80;1.30;;;;;;;;;;5072009;28;20028;-58
2024/02/25 07:36:13;;;;;;;3.28;1.40;;;;;;;;;;5074542;28;20063;-58
2024/02/25 07:38:40;;;;;;;2.30;1.73;;;;;;;;;;5069834;28;20040;-57
2024/02/25 07:41:07;;;;;;;2.30;1.48;;;;;;;;;;5068978;28;20515;-58
2024/02/25 07:43:34;;;;;;;4.15;1.80;;;;;;;;;;5068423;28;20143;-57
2024/02/25 07:46:02;;;;;;;2.17;1.50;;;;;;;;;;5068953;28;20040;-58
2024/02/25 07:48:29;;;;;;;3.03;1.77;;;;;;;;;;5073556;28;20035;-59
2024/02/25 07:50:55;;;;;;;1.67;1.58;;;;;;;;;;5070236;28;20047;-58
2024/02/25 07:53:22;;;;;;;3.53;1.50;;;;;;;;;;5065780;28;20047;-58
2024/02/25 07:55:48;;;;;;;4.20;2.00;;;;;;;;;;5071643;28;20488;-58
2024/02/25 07:58:14;;;;;;;3.22;1.60;;;;;;;;;;5069795;28;20071;-59
2024/02/25 08:00:41;;;;;;;2.50;1.42;;;;;;;;;;5069222;28;20028;-57
2024/02/25 08:03:07;;;;;;;2.88;1.60;;;;;;;;;;5099863;27;20049;-58
2024/02/25 08:05:33;;;;;;;3.42;1.90;;;;;;;;;;5069483;28;20436;-57
2024/02/25 08:08:00;;;;;;;4.38;2.40;;;;;;;;;;5065278;28;20043;-57
2024/02/25 08:10:26;;;;;;;2.25;1.38;;;;;;;;;;5074876;28;20027;-59
2024/02/25 08:12:54;;;;;;;4.03;2.15;;;;;;;;;;5067158;28;20052;-57
2024/02/25 08:15:20;;;;;;;2.55;1.50;;;;;;;;;;5076002;28;20040;-60
2024/02/25 08:17:47;;;;;;;2.47;1.30;;;;;;;;;;5067863;28;20044;-58
2024/02/25 08:20:13;;;;;;;3.50;1.08;;;;;;;;;;5069490;28;20056;-58
2024/02/25 08:22:39;;;;;;;2.30;1.50;;;;;;;;;;5068195;28;20493;-57
2024/02/25 08:25:06;;;;;;;2.33;1.50;;;;;;;;;;5067599;28;20036;-56
2024/02/25 08:27:32;;;;;;;1.77;1.30;;;;;;;;;;5065802;28;20049;-59
2024/02/25 08:29:59;;;;;;;6.03;1.58;;;;;;;;;;5068127;28;20504;-60
2024/02/25 08:32:25;;;;;;;2.28;1.60;;;;;;;;;;5065685;28;20516;-59
2024/02/25 08:34:54;;;;;;;2.15;1.30;;;;;;;;;;5065962;28;20040;-57
2024/02/25 08:37:21;;;;;;;1.90;1.30;;;;;;;;;;5067301;28;20047;-58
2024/02/25 08:39:49;;;;;;;2.85;1.40;;;;;;;;;;5069384;28;20039;-58
2024/02/25 08:42:15;;;;;;;1.95;1.40;;;;;;;;;;5064172;28;20065;-57
2024/02/25 08:44:41;;;;;;;2.17;1.48;;;;;;;;;;5073058;28;20044;-57
2024/02/25 08:47:07;;;;;;;2.88;1.58;;;;;;;;;;5072495;28;20051;-58
2024/02/25 08:49:34;;;;;;;4.82;2.10;;;;;;;;;;5069862;28;20028;-59
2024/02/25 08:52:00;;;;;;;2.50;1.60;;;;;;;;;;5073566;28;20036;-58
2024/02/25 08:54:26;;;;;;;2.63;1.20;;;;;;;;;;5071409;28;20055;-59
2024/02/25 08:56:53;;;;;;;1.50;1.23;;;;;;;;;;5072768;28;20052;-59
2024/02/25 08:59:19;;;;;;;4.18;2.03;;;;;;;;;;5071515;28;20048;-58
2024/02/25 09:01:46;;;;;;;2.10;1.17;;;;;;;;;;5066221;28;20045;-59
2024/02/25 09:04:13;;;;;;;3.60;1.73;;;;;;;;;;5070496;28;20437;-61
2024/02/25 09:06:39;;;;;;;1.88;1.20;;;;;;;;;;5062569;28;20047;-59
2024/02/25 09:09:07;;;;;;;2.15;1.27;;;;;;;;;;5074620;28;20532;-60
2024/02/25 09:11:33;;;;;;;3.13;1.52;;;;;;;;;;5071315;28;20048;-60
2024/02/25 09:13:59;;;;;;;4.05;1.50;;;;;;;;;;5073607;28;20036;-59
2024/02/25 09:16:25;;;;;;;2.63;1.67;;;;;;;;;;5070903;28;20064;-60
2024/02/25 09:18:51;;;;;;;3.28;1.40;;;;;;;;;;5074677;28;20464;-58
2024/02/25 09:21:17;;;;;;;3.03;1.75;;;;;;;;;;5070578;28;20049;-59
2024/02/25 09:23:43;;;;;;;6.32;3.92;;;;;;;;;;5070725;28;20044;-58
2024/02/25 09:26:09;;;;;;;6.70;4.25;;;;;;;;;;5070689;28;20059;-59
2024/02/25 09:28:36;;;;;;;5.43;3.55;;;;;;;;;;5068766;28;20036;-59
2024/02/25 09:31:02;;;;;;;5.70;3.47;;;;;;;;;;5070487;28;20071;-59
2024/02/25 09:33:30;;;;;;;6.30;3.78;;;;;;;;;;5072474;28;20040;-59
2024/02/25 09:35:56;;;;;;;4.57;3.40;;;;;;;;;;5076709;28;20032;-59
2024/02/25 09:38:26;;;;;;;4.55;2.80;;;;;;;;;;5075965;28;20061;-59
2024/02/25 09:41:03;;;;;;;2.58;1.20;;;;;;;;;;5073151;28;20531;-63
2024/02/25 09:43:29;;;;;;;2.10;1.10;;;;;;;;;;5073013;28;20039;-60
2024/02/25 09:45:58;;;;;;;2.97;1.50;;;;;;;;;;5068906;28;20400;-58
2024/02/25 09:48:24;;;;;;;;;;;;;;;;;;5071244;28;20035;-59
2024/02/25 09:50:52;;;;;;;1.98;1.10;;;;;;;;;;5072180;28;19912;-59
2024/02/25 09:53:22;;;;;;;1.80;1.20;;;;;;;;;;5077136;28;20387;-59
2024/02/25 09:55:49;;;;;;;1.80;1.20;;;;;;;;;;5077148;28;20036;-59
2024/02/25 09:58:16;;;;;;;1.67;1.08;;;;;;;;;;5073814;28;20056;-60
2024/02/25 10:00:43;;;;;;;2.58;1.00;;;;;;;;;;5069056;28;20049;-60
2024/02/25 10:03:12;;;;;;;1.10;0.88;;;;;;;;;;5070190;28;20041;-59
2024/02/25 10:05:42;;;;;;;2.67;1.30;;;;;;;;;;5071979;28;20032;-59
2024/02/25 10:08:11;;;;;;;4.22;1.50;;;;;;;;;;5068301;28;20052;-59
2024/02/25 10:10:41;;;;;;;1.27;1.00;;;;;;;;;;5076305;28;20036;-59
2024/02/25 10:13:11;;;;;;;3.08;1.52;;;;;;;;;;5065596;28;20048;-60
2024/02/25 10:15:40;;;;;;;1.92;1.10;;;;;;;;;;5072043;28;20024;-60
2024/02/25 10:18:06;;;;;;;2.08;1.48;;;;;;;;;;5077035;28;20111;-59
2024/02/25 10:20:32;;;;;;;2.00;1.33;;;;;;;;;;5087817;28;20370;-60
2024/02/25 10:23:09;;;;;;;3.55;1.73;;;;;;;;;;5076806;28;20047;-60
2024/02/25 10:25:37;;;;;;;2.13;1.23;;;;;;;;;;5077424;28;20041;-57
2024/02/25 10:28:30;;;;;;;2.10;1.40;;;;;;;;;;5066586;28;20397;-57
2024/02/25 10:31:00;;;;;;;1.50;1.25;;;;;;;;;;5066785;28;20040;-58
2024/02/25 10:33:26;;;;;;;3.75;1.88;;;;;;;;;;5076695;28;20040;-58
2024/02/25 10:36:12;;;;;;;2.17;1.10;;;;;;;;;;5071368;28;20048;-57
2024/02/25 10:38:40;;;;;;;1.75;1.25;;;;;;;;;;5066876;28;20393;-59
2024/02/25 10:41:08;;;;;;;1.73;1.02;;;;;;;;;;5061839;28;20049;-58
2024/02/25 10:43:35;;;;;;;2.92;1.10;;;;;;;;;;5071493;28;20036;-60
2024/02/25 10:46:09;;;;;;;1.33;1.00;;;;;;;;;;5070545;28;20044;-59
2024/02/25 10:48:36;;;;;;;1.88;1.13;;;;;;;;;;5066211;28;20040;-60
2024/02/25 10:51:03;;;;;;;2.92;1.13;;;;;;;;;;5064999;28;20040;-59
2024/02/25 10:53:32;;;;;;;1.90;1.05;;;;;;;;;;5068402;28;20473;-60
2024/02/25 10:55:58;;;;;;;2.00;1.20;;;;;;;;;;5069332;28;20060;-60
2024/02/25 10:58:25;;;;;;;0.90;0.85;;;;;;;;;;5072388;28;20039;-60
2024/02/25 11:00:54;;;;;;;2.38;1.30;;;;;;;;;;5070642;28;20043;-59
2024/02/25 11:03:21;;;;;;;1.88;1.52;;;;;;;;;;5069541;28;20079;-59
2024/02/25 11:05:47;;;;;;;1.50;1.02;;;;;;;;;;5076290;28;20050;-59
2024/02/25 11:08:33;;;;;;;2.78;1.45;;;;;;;;;;5069798;28;20028;-60
2024/02/25 11:11:07;;;;;;;1.60;1.02;;;;;;;;;;5074497;28;20036;-58
2024/02/25 11:13:33;;;;;;;2.42;1.10;;;;;;;;;;5068709;28;20040;-59
2024/02/25 11:16:03;;;;;;;0.80;0.80;;;;;;;;;;5071517;28;20055;-58
2024/02/25 11:18:30;;;;;;;1.40;1.00;;;;;;;;;;5075770;28;20047;-58
2024/02/25 11:21:17;;;;;;;1.77;0.90;;;;;;;;;;5074409;28;20052;-59
2024/02/25 11:23:46;;;;;;;2.42;1.00;;;;;;;;;;5069505;28;20040;-58
2024/02/25 11:26:34;;;;;;;1.60;0.82;;;;;;;;;;5069414;28;20044;-59
2024/02/25 11:29:18;;;;;;;1.48;0.85;;;;;;;;;;5066919;28;20039;-59
2024/02/25 11:31:58;;;;;;;2.85;1.30;;;;;;;;;;5068686;28;20459;-57
2024/02/25 11:34:29;;;;;;;1.75;0.95;;;;;;;;;;5067491;28;20024;-59
2024/02/25 11:37:02;;;;;;;1.73;1.33;;;;;;;;;;5061349;28;20042;-59
2024/02/25 11:39:36;;;;;;;2.88;1.00;;;;;;;;;;5058220;28;20042;-60
2024/02/25 11:42:04;;;;;;;1.10;0.95;;;;;;;;;;5058430;28;20071;-58
2024/02/25 11:44:32;;;;;;;1.05;0.80;;;;;;;;;;5058710;28;20072;-61
2024/02/25 11:47:03;;;;;;;1.10;1.00;;;;;;;;;;5070831;28;20036;-59
2024/02/25 11:49:30;;;;;;;2.38;1.00;;;;;;;;;;5064580;28;20033;-59
2024/02/25 11:52:00;;;;;;;2.25;0.85;;;;;;;;;;5066865;28;20043;-59
2024/02/25 11:54:26;;;;;;;;;;;;;;;;;;5067299;28;20047;-62
2024/02/25 11:56:53;;;;;;;0.90;0.70;;;;;;;;;;5067259;28;19920;-59
2024/02/25 11:59:20;;;;;;;1.75;0.80;;;;;;;;;;5070908;28;20558;-60
2024/02/25 12:01:50;;;;;;;1.33;0.77;;;;;;;;;;5067878;28;20032;-59
2024/02/25 12:04:18;;;;;;;1.90;0.70;;;;;;;;;;5066183;28;20063;-58
2024/02/25 12:06:47;;;;;;;1.50;0.80;;;;;;;;;;5067966;28;20469;-59
2024/02/25 12:09:14;;;;;;;2.42;1.10;;;;;;;;;;5066525;28;20049;-59
2024/02/25 12:11:40;;;;;;;3.50;1.30;;;;;;;;;;5065597;28;20638;-60
2024/02/25 12:14:20;;;;;;;0.52;0.43;;;;;;;;;;5069005;28;20052;-61
2024/02/25 12:16:47;;;;;;;1.48;0.70;;;;;;;;;;5060897;28;20036;-60
2024/02/25 12:19:16;;;;;;;0.73;0.63;;;;;;;;;;5066133;28;20528;-61
2024/02/25 12:21:45;;;;;;;1.20;0.70;;;;;;;;;;5067077;28;20041;-59
2024/02/25 12:24:11;;;;;;;1.27;0.57;;;;;;;;;;5064416;28;20096;-60
2024/02/25 12:26:57;;;;;;;0.93;0.63;;;;;;;;;;5069612;28;20051;-59
2024/02/25 12:29:28;;;;;;;0.63;0.60;;;;;;;;;;5065700;28;20036;-60
2024/02/25 12:31:57;;;;;;;1.08;0.70;;;;;;;;;;5061207;28;20404;-59
2024/02/25 12:34:25;;;;;;;0.90;0.65;;;;;;;;;;5069328;28;20028;-59
2024/02/25 12:36:54;;;;;;;1.42;0.90;;;;;;;;;;5069445;28;20040;-60
2024/02/25 12:39:23;;;;;;;0.95;0.68;;;;;;;;;;5072209;28;20055;-61
2024/02/25 12:42:01;;;;;;;2.42;0.77;;;;;;;;;;5065880;28;20044;-62
2024/02/25 12:44:28;;;;;;;1.08;0.63;;;;;;;;;;5063504;28;20048;-61
2024/02/25 12:46:54;;;;;;;1.90;0.80;;;;;;;;;;5062620;28;20052;-62
2024/02/25 12:49:21;;;;;;;0.85;0.77;;;;;;;;;;5066782;28;20057;-62
2024/02/25 12:51:47;;;;;;;0.73;0.65;;;;;;;;;;5060970;28;20045;-59
2024/02/25 12:54:13;;;;;;;0.95;0.60;;;;;;;;;;5068764;28;20040;-61
2024/02/25 12:56:42;;;;;;;1.80;0.70;;;;;;;;;;5068822;28;20040;-62
2024/02/25 12:59:13;;;;;;;1.05;0.73;;;;;;;;;;5063026;28;20476;-62
2024/02/25 13:01:42;;;;;;;1.90;0.70;;;;;;;;;;5067955;28;20389;-62
2024/02/25 13:04:12;;;;;;;0.97;0.60;;;;;;;;;;5065267;28;20037;-60
2024/02/25 13:06:39;;;;;;;0.60;0.60;;;;;;;;;;5068188;28;20680;-60
2024/02/25 13:09:06;;;;;;;1.52;0.82;;;;;;;;;;5068419;28;20040;-60
2024/02/25 13:11:33;;;;;;;1.00;0.80;;;;;;;;;;5068515;28;20500;-62
2024/02/25 13:13:59;;;;;;;0.75;0.60;;;;;;;;;;5069706;28;20029;-59
2024/02/25 13:16:26;;;;;;;0.98;0.77;;;;;;;;;;5061147;28;20159;-60
2024/02/25 13:18:52;;;;;;;0.60;0.60;;;;;;;;;;5064625;28;20507;-61
2024/02/25 13:21:18;;;;;;;0.98;0.50;;;;;;;;;;5066867;28;20053;-60
2024/02/25 13:23:45;;;;;;;1.38;0.73;;;;;;;;;;5068109;28;20045;-60
2024/02/25 13:26:11;;;;;;;0.70;0.60;;;;;;;;;;5067265;28;20036;-59
2024/02/25 13:28:37;;;;;;;0.40;0.40;;;;;;;;;;5057070;28;20048;-61
2024/02/25 13:31:04;;;;;;;0.90;0.57;;;;;;;;;;5064769;28;20066;-60
2024/02/25 13:33:31;;;;;;;0.57;0.57;;;;;;;;;;5066974;28;20053;-59
2024/02/25 13:35:57;;;;;;;1.90;0.60;;;;;;;;;;5067099;28;20044;-59
2024/02/25 13:38:23;;;;;;;1.08;0.63;;;;;;;;;;5073964;28;20044;-62
2024/02/25 13:40:50;;;;;;;0.77;0.50;;;;;;;;;;5069374;28;20049;-61
2024/02/25 13:43:16;;;;;;;1.67;0.47;;;;;;;;;;5070657;28;20056;-60
2024/02/25 13:45:50;;;;;;;0.68;0.45;;;;;;;;;;5077775;28;20047;-63
2024/02/25 13:48:18;;;;;;;0.80;0.40;;;;;;;;;;5069769;28;20036;-61
2024/02/25 13:50:44;;;;;;;1.42;0.65;;;;;;;;;;5069275;28;20036;-62
2024/02/25 13:53:10;;;;;;;0.60;0.57;;;;;;;;;;5070504;28;20036;-60
2024/02/25 13:55:37;;;;;;;0.60;0.52;;;;;;;;;;5069897;28;20044;-61
2024/02/25 13:58:04;;;;;;;0.70;0.45;;;;;;;;;;5071129;28;20496;-60
2024/02/25 14:00:30;;;;;;;3.30;0.70;;;;;;;;;;5068586;28;20032;-60
2024/02/25 14:02:56;;;;;;;1.13;0.60;;;;;;;;;;5069709;28;20059;-61
2024/02/25 14:05:22;;;;;;;0.60;0.50;;;;;;;;;;5069124;28;20059;-60
2024/02/25 14:07:48;;;;;;;2.13;0.98;;;;;;;;;;5072344;28;20405;-60
2024/02/25 14:10:16;;;;;;;1.05;0.50;;;;;;;;;;5070155;28;20052;-60
2024/02/25 14:12:45;;;;;;;0.70;0.52;;;;;;;;;;5066605;28;20047;-61
2024/02/25 14:15:12;;;;;;;1.98;0.75;;;;;;;;;;5070353;28;20036;-61
2024/02/25 14:17:39;;;;;;;2.42;1.27;;;;;;;;;;5073214;28;20060;-62
2024/02/25 14:20:09;;;;;;;1.60;0.90;;;;;;;;;;5068496;28;20048;-60
2024/02/25 14:22:40;;;;;;;0.82;0.50;;;;;;;;;;5068974;28;20107;-61
2024/02/25 14:25:07;;;;;;;0.50;0.50;;;;;;;;;;5070825;28;20068;-60
2024/02/25 14:27:33;;;;;;;1.23;0.82;;;;;;;;;;5067664;28;20057;-60
2024/02/25 14:30:00;;;;;;;0.75;0.50;;;;;;;;;;5069133;28;20048;-61
2024/02/25 14:32:26;;;;;;;0.43;0.43;;;;;;;;;;5068280;28;20051;-61
2024/02/25 14:34:53;;;;;;;1.30;0.73;;;;;;;;;;5070114;28;20041;-62
2024/02/25 14:37:19;;;;;;;1.30;0.60;;;;;;;;;;5067513;28;20605;-61
2024/02/25 14:39:45;;;;;;;1.35;0.70;;;;;;;;;;5070363;28;20496;-60
2024/02/25 14:42:11;;;;;;;1.13;0.65;;;;;;;;;;5069685;28;20036;-59
2024/02/25 14:44:37;;;;;;;0.68;0.50;;;;;;;;;;5070039;28;20433;-62